sensor_id;sensor_type;location;lat;lon;timestamp;P1;durP1;ratioP1;P2;durP2;ratioP2
50709;SDS011;37033;49.994;21.992;2022-12-18T00:02:28;64.50;;;20.10;;
50709;SDS011;37033;49.994;21.992;2022-12-18T00:05:19;77.10;;;20.60;;
50709;SDS011;37033;49.994;21.992;2022-12-18T00:08:08;84.20;;;26.10;;
50709;SDS011;37033;49.994;21.992;2022-12-18T00:11:04;83.60;;;25.00;;
50709;SDS011;37033;49.994;21.992;2022-12-18T00:13:56;82.80;;;24.50;;
50709;SDS011;37033;49.994;21.992;2022-12-18T00:16:47;90.70;;;27.50;;
50709;SDS011;37033;49.994;21.992;2022-12-18T00:19:37;75.60;;;20.00;;
50709;SDS011;37033;49.994;21.992;2022-12-18T00:22:27;88.40;;;24.70;;
50709;SDS011;37033;49.994;21.992;2022-12-18T00:25:17;63.90;;;21.60;;
50709;SDS011;37033;49.994;21.992;2022-12-18T00:28:07;89.20;;;27.20;;
50709;SDS011;37033;49.994;21.992;2022-12-18T00:31:00;80.70;;;24.10;;
50709;SDS011;37033;49.994;21.992;2022-12-18T00:33:51;89.30;;;24.60;;
50709;SDS011;37033;49.994;21.992;2022-12-18T00:36:41;91.10;;;26.10;;
50709;SDS011;37033;49.994;21.992;2022-12-18T00:39:31;100.90;;;25.60;;
50709;SDS011;37033;49.994;21.992;2022-12-18T00:42:21;85.70;;;22.30;;
50709;SDS011;37033;49.994;21.992;2022-12-18T00:45:30;80.40;;;24.30;;
50709;SDS011;37033;49.994;21.992;2022-12-18T00:48:20;76.60;;;22.70;;
50709;SDS011;37033;49.994;21.992;2022-12-18T00:51:11;75.60;;;19.40;;
50709;SDS011;37033;49.994;21.992;2022-12-18T00:54:01;73.10;;;20.50;;
50709;SDS011;37033;49.994;21.992;2022-12-18T00:56:50;57.70;;;19.30;;
50709;SDS011;37033;49.994;21.992;2022-12-18T00:59:42;76.20;;;24.30;;
50709;SDS011;37033;49.994;21.992;2022-12-18T01:02:32;81.30;;;24.30;;
50709;SDS011;37033;49.994;21.992;2022-12-18T01:05:23;67.00;;;18.50;;
50709;SDS011;37033;49.994;21.992;2022-12-18T01:08:13;57.90;;;16.70;;
50709;SDS011;37033;49.994;21.992;2022-12-18T01:11:06;62.40;;;18.80;;
50709;SDS011;37033;49.994;21.992;2022-12-18T01:14:06;65.00;;;19.30;;
50709;SDS011;37033;49.994;21.992;2022-12-18T01:16:56;59.30;;;19.10;;
50709;SDS011;37033;49.994;21.992;2022-12-18T01:19:46;62.20;;;17.30;;
50709;SDS011;37033;49.994;21.992;2022-12-18T01:22:36;49.60;;;16.60;;
50709;SDS011;37033;49.994;21.992;2022-12-18T01:25:26;46.50;;;16.10;;
50709;SDS011;37033;49.994;21.992;2022-12-18T01:28:16;37.90;;;13.90;;
50709;SDS011;37033;49.994;21.992;2022-12-18T01:31:13;40.40;;;15.30;;
50709;SDS011;37033;49.994;21.992;2022-12-18T01:34:05;42.90;;;14.80;;
50709;SDS011;37033;49.994;21.992;2022-12-18T01:36:55;43.90;;;13.90;;
50709;SDS011;37033;49.994;21.992;2022-12-18T01:39:45;41.70;;;15.70;;
50709;SDS011;37033;49.994;21.992;2022-12-18T01:42:36;39.60;;;13.40;;
50709;SDS011;37033;49.994;21.992;2022-12-18T01:45:27;42.70;;;12.70;;
50709;SDS011;37033;49.994;21.992;2022-12-18T01:48:18;40.90;;;14.70;;
50709;SDS011;37033;49.994;21.992;2022-12-18T01:51:09;46.60;;;15.50;;
50709;SDS011;37033;49.994;21.992;2022-12-18T01:53:59;40.20;;;14.90;;
50709;SDS011;37033;49.994;21.992;2022-12-18T01:56:49;41.60;;;12.50;;
50709;SDS011;37033;49.994;21.992;2022-12-18T01:59:39;40.30;;;12.30;;
50709;SDS011;37033;49.994;21.992;2022-12-18T02:02:30;36.20;;;14.10;;
50709;SDS011;37033;49.994;21.992;2022-12-18T02:05:22;34.70;;;12.00;;
50709;SDS011;37033;49.994;21.992;2022-12-18T02:08:22;48.30;;;14.40;;
50709;SDS011;37033;49.994;21.992;2022-12-18T02:11:20;33.90;;;12.40;;
50709;SDS011;37033;49.994;21.992;2022-12-18T02:14:22;52.40;;;14.10;;
50709;SDS011;37033;49.994;21.992;2022-12-18T02:17:21;36.20;;;12.40;;
50709;SDS011;37033;49.994;21.992;2022-12-18T02:20:16;43.10;;;13.50;;
50709;SDS011;37033;49.994;21.992;2022-12-18T02:26:08;33.90;;;10.80;;
50709;SDS011;37033;49.994;21.992;2022-12-18T02:29:05;41.10;;;13.00;;
50709;SDS011;37033;49.994;21.992;2022-12-18T02:32:00;31.60;;;11.60;;
50709;SDS011;37033;49.994;21.992;2022-12-18T02:34:54;27.40;;;10.60;;
50709;SDS011;37033;49.994;21.992;2022-12-18T02:37:48;41.00;;;12.90;;
50709;SDS011;37033;49.994;21.992;2022-12-18T02:40:43;34.80;;;13.50;;
50709;SDS011;37033;49.994;21.992;2022-12-18T02:43:34;31.80;;;10.70;;
50709;SDS011;37033;49.994;21.992;2022-12-18T02:46:28;45.50;;;14.60;;
50709;SDS011;37033;49.994;21.992;2022-12-18T02:49:26;32.90;;;12.00;;
50709;SDS011;37033;49.994;21.992;2022-12-18T02:52:27;33.90;;;9.80;;
50709;SDS011;37033;49.994;21.992;2022-12-18T02:55:28;40.50;;;12.80;;
50709;SDS011;37033;49.994;21.992;2022-12-18T02:58:30;33.30;;;12.20;;
50709;SDS011;37033;49.994;21.992;2022-12-18T03:01:30;25.80;;;10.00;;
50709;SDS011;37033;49.994;21.992;2022-12-18T03:04:25;31.30;;;12.40;;
50709;SDS011;37033;49.994;21.992;2022-12-18T03:07:18;33.90;;;11.20;;
50709;SDS011;37033;49.994;21.992;2022-12-18T03:10:15;43.00;;;14.40;;
50709;SDS011;37033;49.994;21.992;2022-12-18T03:13:08;30.40;;;10.40;;
50709;SDS011;37033;49.994;21.992;2022-12-18T03:16:01;37.00;;;12.40;;
50709;SDS011;37033;49.994;21.992;2022-12-18T03:18:54;30.90;;;12.00;;
50709;SDS011;37033;49.994;21.992;2022-12-18T03:21:47;36.70;;;12.50;;
50709;SDS011;37033;49.994;21.992;2022-12-18T03:24:41;31.90;;;10.40;;
50709;SDS011;37033;49.994;21.992;2022-12-18T03:27:32;31.40;;;11.20;;
50709;SDS011;37033;49.994;21.992;2022-12-18T03:30:25;23.30;;;9.30;;
50709;SDS011;37033;49.994;21.992;2022-12-18T03:33:21;31.50;;;12.00;;
50709;SDS011;37033;49.994;21.992;2022-12-18T03:36:15;28.40;;;9.70;;
50709;SDS011;37033;49.994;21.992;2022-12-18T03:39:05;28.90;;;10.80;;
50709;SDS011;37033;49.994;21.992;2022-12-18T03:41:55;38.60;;;12.90;;
50709;SDS011;37033;49.994;21.992;2022-12-18T03:44:54;39.50;;;12.60;;
50709;SDS011;37033;49.994;21.992;2022-12-18T03:47:53;34.20;;;11.40;;
50709;SDS011;37033;49.994;21.992;2022-12-18T03:50:52;30.10;;;11.40;;
50709;SDS011;37033;49.994;21.992;2022-12-18T03:53:48;37.30;;;12.90;;
50709;SDS011;37033;49.994;21.992;2022-12-18T03:56:44;35.00;;;13.40;;
50709;SDS011;37033;49.994;21.992;2022-12-18T03:59:38;27.40;;;10.60;;
50709;SDS011;37033;49.994;21.992;2022-12-18T04:02:31;27.10;;;9.40;;
50709;SDS011;37033;49.994;21.992;2022-12-18T04:05:22;26.10;;;10.90;;
50709;SDS011;37033;49.994;21.992;2022-12-18T04:08:14;32.70;;;9.30;;
50709;SDS011;37033;49.994;21.992;2022-12-18T04:11:05;30.80;;;11.30;;
50709;SDS011;37033;49.994;21.992;2022-12-18T04:13:56;22.10;;;8.80;;
50709;SDS011;37033;49.994;21.992;2022-12-18T04:16:47;22.30;;;9.50;;
50709;SDS011;37033;49.994;21.992;2022-12-18T04:19:37;26.60;;;10.30;;
50709;SDS011;37033;49.994;21.992;2022-12-18T04:22:27;24.90;;;9.20;;
50709;SDS011;37033;49.994;21.992;2022-12-18T04:25:17;27.30;;;9.80;;
50709;SDS011;37033;49.994;21.992;2022-12-18T04:28:07;23.80;;;9.40;;
50709;SDS011;37033;49.994;21.992;2022-12-18T04:30:57;13.90;;;7.00;;
50709;SDS011;37033;49.994;21.992;2022-12-18T04:33:47;26.30;;;9.50;;
50709;SDS011;37033;49.994;21.992;2022-12-18T04:36:36;21.60;;;9.40;;
50709;SDS011;37033;49.994;21.992;2022-12-18T04:39:26;22.90;;;9.20;;
50709;SDS011;37033;49.994;21.992;2022-12-18T04:42:16;21.40;;;9.60;;
50709;SDS011;37033;49.994;21.992;2022-12-18T04:45:07;20.60;;;8.80;;
50709;SDS011;37033;49.994;21.992;2022-12-18T04:47:58;20.10;;;8.80;;
50709;SDS011;37033;49.994;21.992;2022-12-18T04:50:48;20.70;;;8.20;;
50709;SDS011;37033;49.994;21.992;2022-12-18T04:53:38;22.30;;;8.40;;
50709;SDS011;37033;49.994;21.992;2022-12-18T04:56:30;18.20;;;7.60;;
50709;SDS011;37033;49.994;21.992;2022-12-18T04:59:20;26.80;;;9.40;;
50709;SDS011;37033;49.994;21.992;2022-12-18T05:02:10;25.90;;;9.10;;
50709;SDS011;37033;49.994;21.992;2022-12-18T05:04:59;25.30;;;8.60;;
50709;SDS011;37033;49.994;21.992;2022-12-18T05:07:49;24.10;;;9.90;;
50709;SDS011;37033;49.994;21.992;2022-12-18T05:10:39;24.00;;;9.60;;
50709;SDS011;37033;49.994;21.992;2022-12-18T05:13:29;24.30;;;8.40;;
50709;SDS011;37033;49.994;21.992;2022-12-18T05:16:20;23.30;;;9.50;;
50709;SDS011;37033;49.994;21.992;2022-12-18T05:19:10;20.40;;;8.90;;
50709;SDS011;37033;49.994;21.992;2022-12-18T05:22:00;29.60;;;11.40;;
50709;SDS011;37033;49.994;21.992;2022-12-18T05:24:50;28.30;;;12.10;;
50709;SDS011;37033;49.994;21.992;2022-12-18T05:27:40;21.60;;;8.80;;
50709;SDS011;37033;49.994;21.992;2022-12-18T05:30:30;22.30;;;8.10;;
50709;SDS011;37033;49.994;21.992;2022-12-18T05:33:20;22.70;;;9.30;;
50709;SDS011;37033;49.994;21.992;2022-12-18T05:36:11;30.50;;;10.10;;
50709;SDS011;37033;49.994;21.992;2022-12-18T05:39:01;22.20;;;9.90;;
50709;SDS011;37033;49.994;21.992;2022-12-18T05:41:51;24.80;;;10.00;;
50709;SDS011;37033;49.994;21.992;2022-12-18T05:44:41;22.40;;;9.30;;
50709;SDS011;37033;49.994;21.992;2022-12-18T05:47:31;22.50;;;9.70;;
50709;SDS011;37033;49.994;21.992;2022-12-18T05:50:21;27.30;;;9.80;;
50709;SDS011;37033;49.994;21.992;2022-12-18T05:53:12;27.50;;;10.10;;
50709;SDS011;37033;49.994;21.992;2022-12-18T05:56:04;26.10;;;9.30;;
50709;SDS011;37033;49.994;21.992;2022-12-18T05:58:55;26.50;;;8.70;;
50709;SDS011;37033;49.994;21.992;2022-12-18T06:01:45;28.10;;;10.40;;
50709;SDS011;37033;49.994;21.992;2022-12-18T06:04:35;26.10;;;10.80;;
50709;SDS011;37033;49.994;21.992;2022-12-18T06:07:25;22.80;;;9.60;;
50709;SDS011;37033;49.994;21.992;2022-12-18T06:10:15;29.20;;;11.00;;
50709;SDS011;37033;49.994;21.992;2022-12-18T06:13:06;27.70;;;10.00;;
50709;SDS011;37033;49.994;21.992;2022-12-18T06:15:57;30.20;;;11.20;;
50709;SDS011;37033;49.994;21.992;2022-12-18T06:18:49;29.60;;;11.50;;
50709;SDS011;37033;49.994;21.992;2022-12-18T06:21:39;24.90;;;9.50;;
50709;SDS011;37033;49.994;21.992;2022-12-18T06:24:29;18.30;;;9.20;;
50709;SDS011;37033;49.994;21.992;2022-12-18T06:27:19;28.40;;;10.50;;
50709;SDS011;37033;49.994;21.992;2022-12-18T06:30:10;29.80;;;10.00;;
50709;SDS011;37033;49.994;21.992;2022-12-18T06:33:01;31.00;;;10.10;;
50709;SDS011;37033;49.994;21.992;2022-12-18T06:35:50;32.20;;;11.80;;
50709;SDS011;37033;49.994;21.992;2022-12-18T06:38:41;24.00;;;10.20;;
50709;SDS011;37033;49.994;21.992;2022-12-18T06:41:32;24.70;;;11.50;;
50709;SDS011;37033;49.994;21.992;2022-12-18T06:44:22;20.80;;;9.30;;
50709;SDS011;37033;49.994;21.992;2022-12-18T06:47:12;29.60;;;11.10;;
50709;SDS011;37033;49.994;21.992;2022-12-18T06:50:02;23.20;;;9.80;;
50709;SDS011;37033;49.994;21.992;2022-12-18T06:52:53;29.80;;;10.80;;
50709;SDS011;37033;49.994;21.992;2022-12-18T06:55:43;33.40;;;11.80;;
50709;SDS011;37033;49.994;21.992;2022-12-18T06:58:33;24.60;;;10.80;;
50709;SDS011;37033;49.994;21.992;2022-12-18T07:01:23;29.40;;;12.60;;
50709;SDS011;37033;49.994;21.992;2022-12-18T07:04:13;35.80;;;11.20;;
50709;SDS011;37033;49.994;21.992;2022-12-18T07:07:02;30.80;;;12.50;;
50709;SDS011;37033;49.994;21.992;2022-12-18T07:09:52;43.90;;;16.70;;
50709;SDS011;37033;49.994;21.992;2022-12-18T07:12:42;37.50;;;14.80;;
50709;SDS011;37033;49.994;21.992;2022-12-18T07:15:33;47.80;;;14.80;;
50709;SDS011;37033;49.994;21.992;2022-12-18T07:18:23;38.90;;;14.60;;
50709;SDS011;37033;49.994;21.992;2022-12-18T07:21:14;41.60;;;15.50;;
50709;SDS011;37033;49.994;21.992;2022-12-18T07:24:06;36.30;;;13.10;;
50709;SDS011;37033;49.994;21.992;2022-12-18T07:26:56;43.20;;;14.30;;
50709;SDS011;37033;49.994;21.992;2022-12-18T07:29:46;39.00;;;14.70;;
50709;SDS011;37033;49.994;21.992;2022-12-18T07:32:36;74.50;;;23.10;;
50709;SDS011;37033;49.994;21.992;2022-12-18T07:35:26;113.40;;;35.00;;
50709;SDS011;37033;49.994;21.992;2022-12-18T07:38:16;73.90;;;22.70;;
50709;SDS011;37033;49.994;21.992;2022-12-18T07:41:06;81.60;;;25.40;;
50709;SDS011;37033;49.994;21.992;2022-12-18T07:43:58;58.60;;;20.50;;
50709;SDS011;37033;49.994;21.992;2022-12-18T07:46:49;63.30;;;20.40;;
50709;SDS011;37033;49.994;21.992;2022-12-18T07:49:39;50.20;;;19.60;;
50709;SDS011;37033;49.994;21.992;2022-12-18T07:52:28;42.90;;;20.20;;
50709;SDS011;37033;49.994;21.992;2022-12-18T07:55:18;51.70;;;20.20;;
50709;SDS011;37033;49.994;21.992;2022-12-18T07:58:08;46.60;;;18.80;;
50709;SDS011;37033;49.994;21.992;2022-12-18T08:01:03;34.60;;;15.10;;
50709;SDS011;37033;49.994;21.992;2022-12-18T08:03:54;35.00;;;12.90;;
50709;SDS011;37033;49.994;21.992;2022-12-18T08:06:45;35.80;;;12.90;;
50709;SDS011;37033;49.994;21.992;2022-12-18T08:09:35;43.60;;;14.70;;
50709;SDS011;37033;49.994;21.992;2022-12-18T08:12:25;36.50;;;14.10;;
50709;SDS011;37033;49.994;21.992;2022-12-18T08:15:16;36.10;;;13.50;;
50709;SDS011;37033;49.994;21.992;2022-12-18T08:18:05;39.10;;;12.60;;
50709;SDS011;37033;49.994;21.992;2022-12-18T08:20:55;30.40;;;11.70;;
50709;SDS011;37033;49.994;21.992;2022-12-18T08:23:45;31.10;;;11.00;;
50709;SDS011;37033;49.994;21.992;2022-12-18T08:26:35;31.30;;;13.20;;
50709;SDS011;37033;49.994;21.992;2022-12-18T08:29:25;31.60;;;12.60;;
50709;SDS011;37033;49.994;21.992;2022-12-18T08:32:17;32.20;;;12.70;;
50709;SDS011;37033;49.994;21.992;2022-12-18T08:35:07;40.80;;;13.90;;
50709;SDS011;37033;49.994;21.992;2022-12-18T08:37:58;34.60;;;13.10;;
50709;SDS011;37033;49.994;21.992;2022-12-18T08:40:48;42.70;;;13.70;;
50709;SDS011;37033;49.994;21.992;2022-12-18T08:43:42;46.10;;;14.90;;
50709;SDS011;37033;49.994;21.992;2022-12-18T08:46:49;29.80;;;12.30;;
50709;SDS011;37033;49.994;21.992;2022-12-18T08:49:39;41.40;;;14.90;;
50709;SDS011;37033;49.994;21.992;2022-12-18T08:52:30;38.30;;;14.40;;
50709;SDS011;37033;49.994;21.992;2022-12-18T08:55:20;34.40;;;13.90;;
50709;SDS011;37033;49.994;21.992;2022-12-18T08:58:11;43.80;;;14.80;;
50709;SDS011;37033;49.994;21.992;2022-12-18T09:01:02;46.70;;;15.20;;
50709;SDS011;37033;49.994;21.992;2022-12-18T09:03:54;38.10;;;13.30;;
50709;SDS011;37033;49.994;21.992;2022-12-18T09:06:44;43.40;;;13.30;;
50709;SDS011;37033;49.994;21.992;2022-12-18T09:09:34;43.00;;;14.80;;
50709;SDS011;37033;49.994;21.992;2022-12-18T09:12:24;47.10;;;15.20;;
50709;SDS011;37033;49.994;21.992;2022-12-18T09:15:14;42.20;;;14.50;;
50709;SDS011;37033;49.994;21.992;2022-12-18T09:18:04;49.20;;;17.50;;
50709;SDS011;37033;49.994;21.992;2022-12-18T09:20:55;47.00;;;17.70;;
50709;SDS011;37033;49.994;21.992;2022-12-18T09:23:50;28.20;;;12.10;;
50709;SDS011;37033;49.994;21.992;2022-12-18T09:26:40;38.80;;;13.40;;
50709;SDS011;37033;49.994;21.992;2022-12-18T09:29:30;36.00;;;14.60;;
50709;SDS011;37033;49.994;21.992;2022-12-18T09:32:20;38.50;;;14.50;;
50709;SDS011;37033;49.994;21.992;2022-12-18T09:35:10;32.70;;;12.00;;
50709;SDS011;37033;49.994;21.992;2022-12-18T09:38:00;34.00;;;12.60;;
50709;SDS011;37033;49.994;21.992;2022-12-18T09:40:51;30.70;;;11.10;;
50709;SDS011;37033;49.994;21.992;2022-12-18T09:43:45;33.40;;;11.30;;
50709;SDS011;37033;49.994;21.992;2022-12-18T09:46:39;37.20;;;11.20;;
50709;SDS011;37033;49.994;21.992;2022-12-18T09:49:33;36.40;;;13.40;;
50709;SDS011;37033;49.994;21.992;2022-12-18T09:52:28;30.30;;;12.70;;
50709;SDS011;37033;49.994;21.992;2022-12-18T09:55:23;35.70;;;12.80;;
50709;SDS011;37033;49.994;21.992;2022-12-18T09:58:19;28.60;;;12.20;;
50709;SDS011;37033;49.994;21.992;2022-12-18T10:01:15;35.30;;;13.40;;
50709;SDS011;37033;49.994;21.992;2022-12-18T10:04:09;38.90;;;14.30;;
50709;SDS011;37033;49.994;21.992;2022-12-18T10:07:00;33.10;;;12.10;;
50709;SDS011;37033;49.994;21.992;2022-12-18T10:09:59;30.60;;;12.30;;
50709;SDS011;37033;49.994;21.992;2022-12-18T10:12:56;38.00;;;12.10;;
50709;SDS011;37033;49.994;21.992;2022-12-18T10:16:00;35.80;;;12.60;;
50709;SDS011;37033;49.994;21.992;2022-12-18T10:19:00;36.20;;;12.90;;
50709;SDS011;37033;49.994;21.992;2022-12-18T10:22:01;35.30;;;14.50;;
50709;SDS011;37033;49.994;21.992;2022-12-18T10:25:00;29.00;;;12.00;;
50709;SDS011;37033;49.994;21.992;2022-12-18T10:27:57;24.90;;;9.10;;
50709;SDS011;37033;49.994;21.992;2022-12-18T10:30:54;29.60;;;12.60;;
50709;SDS011;37033;49.994;21.992;2022-12-18T10:33:45;49.50;;;18.90;;
50709;SDS011;37033;49.994;21.992;2022-12-18T10:36:35;38.10;;;16.10;;
50709;SDS011;37033;49.994;21.992;2022-12-18T10:39:25;41.70;;;15.00;;
50709;SDS011;37033;49.994;21.992;2022-12-18T10:42:17;28.70;;;10.50;;
50709;SDS011;37033;49.994;21.992;2022-12-18T10:45:10;30.40;;;11.80;;
50709;SDS011;37033;49.994;21.992;2022-12-18T10:48:00;39.50;;;14.50;;
50709;SDS011;37033;49.994;21.992;2022-12-18T10:50:51;34.20;;;13.50;;
50709;SDS011;37033;49.994;21.992;2022-12-18T10:53:41;32.90;;;15.40;;
50709;SDS011;37033;49.994;21.992;2022-12-18T10:56:39;34.80;;;13.00;;
50709;SDS011;37033;49.994;21.992;2022-12-18T10:59:29;31.90;;;13.10;;
50709;SDS011;37033;49.994;21.992;2022-12-18T11:02:41;29.30;;;11.00;;
50709;SDS011;37033;49.994;21.992;2022-12-18T11:05:31;29.40;;;11.90;;
50709;SDS011;37033;49.994;21.992;2022-12-18T11:08:23;29.60;;;11.40;;
50709;SDS011;37033;49.994;21.992;2022-12-18T11:11:19;30.10;;;13.30;;
50709;SDS011;37033;49.994;21.992;2022-12-18T11:14:13;29.30;;;12.60;;
50709;SDS011;37033;49.994;21.992;2022-12-18T11:17:16;40.20;;;15.10;;
50709;SDS011;37033;49.994;21.992;2022-12-18T11:23:18;32.50;;;13.50;;
50709;SDS011;37033;49.994;21.992;2022-12-18T11:26:10;29.20;;;12.00;;
50709;SDS011;37033;49.994;21.992;2022-12-18T11:29:09;33.10;;;13.50;;
50709;SDS011;37033;49.994;21.992;2022-12-18T11:32:21;29.10;;;12.50;;
50709;SDS011;37033;49.994;21.992;2022-12-18T11:35:20;38.40;;;13.50;;
50709;SDS011;37033;49.994;21.992;2022-12-18T11:38:19;49.50;;;16.20;;
50709;SDS011;37033;49.994;21.992;2022-12-18T11:41:14;48.70;;;17.90;;
50709;SDS011;37033;49.994;21.992;2022-12-18T11:44:35;31.80;;;13.10;;
50709;SDS011;37033;49.994;21.992;2022-12-18T11:47:31;31.90;;;12.80;;
50709;SDS011;37033;49.994;21.992;2022-12-18T11:50:28;25.20;;;11.00;;
50709;SDS011;37033;49.994;21.992;2022-12-18T11:53:20;33.40;;;12.90;;
50709;SDS011;37033;49.994;21.992;2022-12-18T11:56:16;36.90;;;13.30;;
50709;SDS011;37033;49.994;21.992;2022-12-18T12:02:20;25.60;;;9.60;;
50709;SDS011;37033;49.994;21.992;2022-12-18T12:05:34;25.30;;;11.20;;
50709;SDS011;37033;49.994;21.992;2022-12-18T12:11:28;23.50;;;9.50;;
50709;SDS011;37033;49.994;21.992;2022-12-18T12:14:34;18.30;;;9.10;;
50709;SDS011;37033;49.994;21.992;2022-12-18T12:17:34;23.20;;;8.90;;
50709;SDS011;37033;49.994;21.992;2022-12-18T12:20:35;30.50;;;11.30;;
50709;SDS011;37033;49.994;21.992;2022-12-18T12:23:39;32.60;;;11.60;;
50709;SDS011;37033;49.994;21.992;2022-12-18T12:26:36;26.70;;;10.50;;
50709;SDS011;37033;49.994;21.992;2022-12-18T12:29:36;30.20;;;12.20;;
50709;SDS011;37033;49.994;21.992;2022-12-18T12:32:37;24.70;;;10.50;;
50709;SDS011;37033;49.994;21.992;2022-12-18T12:35:44;28.10;;;9.80;;
50709;SDS011;37033;49.994;21.992;2022-12-18T12:38:41;25.90;;;10.40;;
50709;SDS011;37033;49.994;21.992;2022-12-18T12:41:36;22.50;;;9.90;;
50709;SDS011;37033;49.994;21.992;2022-12-18T12:44:49;29.80;;;10.60;;
50709;SDS011;37033;49.994;21.992;2022-12-18T12:50:34;25.70;;;10.50;;
50709;SDS011;37033;49.994;21.992;2022-12-18T12:53:29;23.50;;;10.20;;
50709;SDS011;37033;49.994;21.992;2022-12-18T12:56:24;30.90;;;11.70;;
50709;SDS011;37033;49.994;21.992;2022-12-18T12:59:19;33.20;;;14.00;;
50709;SDS011;37033;49.994;21.992;2022-12-18T13:02:18;28.30;;;11.50;;
50709;SDS011;37033;49.994;21.992;2022-12-18T13:05:14;31.80;;;10.90;;
50709;SDS011;37033;49.994;21.992;2022-12-18T13:08:21;31.90;;;11.70;;
50709;SDS011;37033;49.994;21.992;2022-12-18T13:11:14;31.10;;;12.80;;
50709;SDS011;37033;49.994;21.992;2022-12-18T13:14:38;31.00;;;11.70;;
50709;SDS011;37033;49.994;21.992;2022-12-18T13:17:29;38.00;;;13.00;;
50709;SDS011;37033;49.994;21.992;2022-12-18T13:20:20;24.40;;;9.40;;
50709;SDS011;37033;49.994;21.992;2022-12-18T13:23:25;37.90;;;14.60;;
50709;SDS011;37033;49.994;21.992;2022-12-18T13:29:41;28.20;;;11.70;;
50709;SDS011;37033;49.994;21.992;2022-12-18T13:32:32;34.40;;;11.50;;
50709;SDS011;37033;49.994;21.992;2022-12-18T13:38:41;44.20;;;16.30;;
50709;SDS011;37033;49.994;21.992;2022-12-18T13:41:31;57.80;;;18.50;;
50709;SDS011;37033;49.994;21.992;2022-12-18T13:44:25;38.20;;;14.30;;
50709;SDS011;37033;49.994;21.992;2022-12-18T13:47:27;37.70;;;15.00;;
50709;SDS011;37033;49.994;21.992;2022-12-18T13:50:29;30.20;;;11.60;;
50709;SDS011;37033;49.994;21.992;2022-12-18T13:53:22;23.80;;;10.60;;
50709;SDS011;37033;49.994;21.992;2022-12-18T13:56:21;33.60;;;15.10;;
50709;SDS011;37033;49.994;21.992;2022-12-18T13:59:17;35.10;;;16.20;;
50709;SDS011;37033;49.994;21.992;2022-12-18T14:02:13;35.70;;;14.80;;
50709;SDS011;37033;49.994;21.992;2022-12-18T14:05:20;33.30;;;14.40;;
50709;SDS011;37033;49.994;21.992;2022-12-18T14:08:12;28.70;;;11.70;;
50709;SDS011;37033;49.994;21.992;2022-12-18T14:11:03;32.70;;;12.30;;
50709;SDS011;37033;49.994;21.992;2022-12-18T14:13:54;31.70;;;13.30;;
50709;SDS011;37033;49.994;21.992;2022-12-18T14:16:44;28.80;;;9.60;;
50709;SDS011;37033;49.994;21.992;2022-12-18T14:19:35;33.60;;;12.30;;
50709;SDS011;37033;49.994;21.992;2022-12-18T14:22:29;39.50;;;13.10;;
50709;SDS011;37033;49.994;21.992;2022-12-18T14:25:21;28.10;;;10.40;;
50709;SDS011;37033;49.994;21.992;2022-12-18T14:28:14;28.10;;;11.40;;
50709;SDS011;37033;49.994;21.992;2022-12-18T14:31:15;28.00;;;10.50;;
50709;SDS011;37033;49.994;21.992;2022-12-18T14:34:08;30.30;;;11.60;;
50709;SDS011;37033;49.994;21.992;2022-12-18T14:37:05;25.60;;;11.00;;
50709;SDS011;37033;49.994;21.992;2022-12-18T14:40:00;27.60;;;10.20;;
50709;SDS011;37033;49.994;21.992;2022-12-18T14:43:00;24.20;;;10.20;;
50709;SDS011;37033;49.994;21.992;2022-12-18T14:45:50;25.20;;;10.20;;
50709;SDS011;37033;49.994;21.992;2022-12-18T14:48:41;27.60;;;10.10;;
50709;SDS011;37033;49.994;21.992;2022-12-18T14:51:35;27.60;;;10.30;;
50709;SDS011;37033;49.994;21.992;2022-12-18T14:54:26;27.50;;;9.60;;
50709;SDS011;37033;49.994;21.992;2022-12-18T14:57:20;23.00;;;10.10;;
50709;SDS011;37033;49.994;21.992;2022-12-18T15:00:14;21.40;;;8.70;;
50709;SDS011;37033;49.994;21.992;2022-12-18T15:03:06;21.80;;;9.20;;
50709;SDS011;37033;49.994;21.992;2022-12-18T15:05:58;30.40;;;10.70;;
50709;SDS011;37033;49.994;21.992;2022-12-18T15:09:20;39.60;;;12.40;;
50709;SDS011;37033;49.994;21.992;2022-12-18T15:12:19;31.20;;;12.80;;
50709;SDS011;37033;49.994;21.992;2022-12-18T15:18:40;30.80;;;12.90;;
50709;SDS011;37033;49.994;21.992;2022-12-18T15:21:31;32.20;;;15.10;;
50709;SDS011;37033;49.994;21.992;2022-12-18T15:24:22;35.00;;;14.70;;
50709;SDS011;37033;49.994;21.992;2022-12-18T15:27:26;34.30;;;13.70;;
50709;SDS011;37033;49.994;21.992;2022-12-18T15:30:22;31.20;;;13.10;;
50709;SDS011;37033;49.994;21.992;2022-12-18T15:33:23;32.90;;;12.90;;
50709;SDS011;37033;49.994;21.992;2022-12-18T15:36:15;35.30;;;13.60;;
50709;SDS011;37033;49.994;21.992;2022-12-18T15:39:05;38.50;;;14.70;;
50709;SDS011;37033;49.994;21.992;2022-12-18T15:41:59;41.90;;;16.00;;
50709;SDS011;37033;49.994;21.992;2022-12-18T15:45:10;40.30;;;14.60;;
50709;SDS011;37033;49.994;21.992;2022-12-18T15:48:06;33.30;;;14.20;;
50709;SDS011;37033;49.994;21.992;2022-12-18T15:51:08;65.70;;;21.10;;
50709;SDS011;37033;49.994;21.992;2022-12-18T15:54:03;53.10;;;20.50;;
50709;SDS011;37033;49.994;21.992;2022-12-18T15:56:58;75.90;;;25.60;;
50709;SDS011;37033;49.994;21.992;2022-12-18T16:00:11;111.10;;;30.80;;
50709;SDS011;37033;49.994;21.992;2022-12-18T16:05:50;38.50;;;14.90;;
50709;SDS011;37033;49.994;21.992;2022-12-18T16:08:40;43.20;;;15.00;;
50709;SDS011;37033;49.994;21.992;2022-12-18T16:11:30;38.80;;;14.40;;
50709;SDS011;37033;49.994;21.992;2022-12-18T16:14:29;65.10;;;25.20;;
50709;SDS011;37033;49.994;21.992;2022-12-18T16:17:19;113.70;;;30.80;;
50709;SDS011;37033;49.994;21.992;2022-12-18T16:20:11;91.50;;;28.60;;
50709;SDS011;37033;49.994;21.992;2022-12-18T16:23:02;84.50;;;26.00;;
50709;SDS011;37033;49.994;21.992;2022-12-18T16:25:52;89.60;;;28.40;;
50709;SDS011;37033;49.994;21.992;2022-12-18T16:28:43;59.30;;;20.20;;
50709;SDS011;37033;49.994;21.992;2022-12-18T16:31:32;45.60;;;18.00;;
50709;SDS011;37033;49.994;21.992;2022-12-18T16:34:23;60.90;;;22.30;;
50709;SDS011;37033;49.994;21.992;2022-12-18T16:37:15;66.60;;;24.80;;
50709;SDS011;37033;49.994;21.992;2022-12-18T16:40:05;71.60;;;28.10;;
50709;SDS011;37033;49.994;21.992;2022-12-18T16:42:57;44.90;;;16.70;;
50709;SDS011;37033;49.994;21.992;2022-12-18T16:45:47;53.70;;;18.90;;
50709;SDS011;37033;49.994;21.992;2022-12-18T16:48:37;42.90;;;16.40;;
50709;SDS011;37033;49.994;21.992;2022-12-18T16:51:27;98.50;;;33.70;;
50709;SDS011;37033;49.994;21.992;2022-12-18T16:54:17;46.20;;;15.70;;
50709;SDS011;37033;49.994;21.992;2022-12-18T16:57:08;47.00;;;17.70;;
50709;SDS011;37033;49.994;21.992;2022-12-18T17:00:00;44.90;;;16.10;;
50709;SDS011;37033;49.994;21.992;2022-12-18T17:02:50;87.50;;;31.80;;
50709;SDS011;37033;49.994;21.992;2022-12-18T17:05:41;70.90;;;26.00;;
50709;SDS011;37033;49.994;21.992;2022-12-18T17:08:30;58.00;;;22.10;;
50709;SDS011;37033;49.994;21.992;2022-12-18T17:11:20;45.90;;;17.20;;